Airfield :







YOU CAN JOIN US ON...

 
LOGIN :

Register | Disclaimer

   EN    FR    IT 

 









Legend :    VFR   Marginal VFR   IFR   Intensive IFR   Very Intensive IFR
Visi :
Ceiling :
>= 8 km
>= 3000ft
5 to 8 km
1000 to 3000 ft
1500m to 5 km
500 to 1000 ft
800 to 1500m
200 to 500 ft
< 800m
< 200 ft
Symbols :   Thunderstorms  Fog  Heavy snow  Heavy precipitations  Wind > 20 kt






- Airport Elevation : 232 ft
- IATA code : YQM


CYQM - Greater Moncton International

CURRENT METAR :
  • 150237Z 16011G16KT 6SM R06/4500VP6000FT/U -DZ SCT002 OVC027 12/12 A2929 RMK SF3SC5 SLP920 DENSITY ALT 700FT

EXPIRED METARs :
  • 150221Z 16010KT 3/4SM R06/3000FT/N R29/P6000FT/U -DZ BR BKN002 BKN015 OVC030 11/11 A2930 RMK FG2SF4SF1SC1 PRESFR SLP925 DENSITY ALT 500FT
  • 150200Z 18005KT 1/2SM R06/3500FT/N R29/3000V5000FT/U -DZ FG BKN012 OVC024 07/07 A2931 RMK FG5SC2SC1 SLP930
  • 150149Z VRB02KT 3/8SM R06/4000FT/N R29/3500FT/D -DZ FG OVC012 05/05 A2932 RMK FG7SC1 SLP931
  • 150136Z VRB02KT 1/2SM R06/4500FT/D R29/4000FT/D FG OVC014 05/05 A2932 RMK FG6SC2 PRESFR SLP932
  • 150100Z 09004KT 3/4SM R06/P6000FT/D R29/5000VP6000FT/D -DZ BR OVC004 05/05 A2935 RMK ST8 SLP944
  • 150056Z 10004KT 3/4SM R06/P6000FT/D R29/6000FT/D -DZ BR OVC004 05/05 A2936 RMK ST8 SLP946
  • 150005Z 09008KT 7SM -RA OVC004 05/05 A2940 RMK SF8 PRESFR SLP959
  • 142355Z 09011KT 8SM -RA OVC005 05/05 A2941 RMK SF8 PRESFR SLP962

TAF AMD TAF CYQM
Valid from the 15 at 01:00 until the 16 at 00:00 UTC


150102Z 1501/1524 VRB03KT 3/4SM -DZ BR VV004
TEMPO 1501/1510 6SM -RA BR OVC008
BECMG 1501/1503 17015G25KT
FM151000 20015G25KT 6SM BR BKN008 OVC012
FM151400 20025G35KT P6SM -SHRA BKN020
FM151800 24025G35KT P6SM BKN030 RMK NXT FCST BY 150600Z



MET'MAP, your aeronautical weather chart ! - Copyright ORBIFLY December 2007 - Disclaimer

ORBIFLY MET'MAP TEAM :

Programming & Development : Alexandra Zaïnal
Concept & original design : Baudouin d'Aumeries
Assistance for programming : Marc-Olivier Méhu
Technical & hardware support : Manuel Goepfert

Contact : metmap@orbifly.com




SOURCES & CREDITS :

   NOAA